CheckWX is a tool to help pilots better visualize weather data.  It is not intended as a substitute for an official pre-flight weather briefing.

04:41:45 UTC

ZLXY TAF
Xi'an Xianyang International Airport
Xianyang, China
TAF ZLXY 221907Z 2300/2324 06003MPS 3000 HZ NSC TX17/2307Z TN03/2322Z

Mar-23@
00:00 UTC

Mar-23 @ 00:00 UTC

Mar-24@
00:00 UTC

Mar-24 @ 00:00 UTC

TAF ZLXY 221907Z 2300/2324 06003MPS 3000 HZ NSC TX17/2307Z TN03/2322Z
Wind
  • 060° at 6 KTS
Conditions
Haze
Cloud Levels
  • No significant clouds